createdAt,value
2023-02-06T00:01:42.238Z,6.20
2023-02-06T00:04:10.349Z,6.40
2023-02-06T00:06:39.008Z,5.70
2023-02-06T00:09:07.556Z,5.90
2023-02-06T00:11:36.487Z,5.50
2023-02-06T00:14:04.779Z,5.70
2023-02-06T00:16:35.007Z,6.00
2023-02-06T00:19:04.103Z,6.00
2023-02-06T00:21:33.914Z,6.10
2023-02-06T00:24:03.293Z,5.40
2023-02-06T00:26:32.005Z,6.10
2023-02-06T00:29:00.174Z,5.20
2023-02-06T00:31:28.402Z,5.50
2023-02-06T00:33:56.631Z,5.10
2023-02-06T00:36:24.827Z,5.40
2023-02-06T00:38:53.423Z,5.40
2023-02-06T00:41:22.012Z,5.20
2023-02-06T00:43:52.458Z,5.00
2023-02-06T00:46:21.468Z,5.70
2023-02-06T00:48:49.615Z,5.30
2023-02-06T00:51:17.681Z,6.10
2023-02-06T00:53:45.764Z,6.50
2023-02-06T00:56:14.656Z,6.50
2023-02-06T00:58:42.701Z,6.60
2023-02-06T01:01:12.906Z,7.00
2023-02-06T01:03:41.035Z,7.80
2023-02-06T01:06:10.662Z,7.60
2023-02-06T01:08:39.129Z,7.80
2023-02-06T01:11:22.969Z,7.70
2023-02-06T01:13:52.065Z,7.70
2023-02-06T01:16:22.441Z,7.50
2023-02-06T01:18:50.870Z,8.10
2023-02-06T01:21:22.946Z,7.90
2023-02-06T01:23:53.834Z,8.30
2023-02-06T01:26:26.882Z,8.00
2023-02-06T01:28:55.782Z,8.10
2023-02-06T01:31:23.885Z,9.00
2023-02-06T01:33:52.946Z,8.90
2023-02-06T01:36:21.732Z,8.50
2023-02-06T01:38:51.558Z,8.20
2023-02-06T01:41:22.188Z,8.60
2023-02-06T01:44:26.819Z,8.20
2023-02-06T01:46:57.150Z,7.60
2023-02-06T01:49:37.070Z,7.20
2023-02-06T01:52:20.395Z,8.30
2023-02-06T01:54:55.331Z,7.20
2023-02-06T01:57:25.236Z,7.00
2023-02-06T01:59:58.989Z,7.10
2023-02-06T02:02:28.795Z,6.50
2023-02-06T02:04:58.190Z,8.00
2023-02-06T02:07:36.584Z,6.60
2023-02-06T02:10:05.577Z,6.90
2023-02-06T02:12:34.217Z,6.70
2023-02-06T02:15:02.654Z,6.80
2023-02-06T02:17:43.635Z,7.10
2023-02-06T02:20:44.447Z,7.00
2023-02-06T02:23:30.439Z,6.50
2023-02-06T02:26:25.633Z,6.60
2023-02-06T02:28:59.540Z,6.90
2023-02-06T02:31:49.494Z,6.30
2023-02-06T02:34:53.931Z,6.70
2023-02-06T02:37:44.516Z,6.20
2023-02-06T02:40:38.684Z,5.80
2023-02-06T02:43:20.289Z,5.90
2023-02-06T02:46:09.072Z,5.90
2023-02-06T02:48:43.632Z,6.30
2023-02-06T02:51:12.542Z,5.60
2023-02-06T02:53:40.813Z,7.30
2023-02-06T02:56:27.754Z,6.30
2023-02-06T02:59:00.711Z,5.90
2023-02-06T03:01:35.567Z,7.30
2023-02-06T03:04:10.257Z,6.60
2023-02-06T03:06:59.733Z,6.80
2023-02-06T03:09:45.815Z,7.50
2023-02-06T03:12:20.656Z,7.60
2023-02-06T03:14:56.208Z,8.40
2023-02-06T03:17:39.215Z,8.10
2023-02-06T03:20:11.199Z,6.90
2023-02-06T03:22:42.187Z,8.60
2023-02-06T03:25:16.221Z,7.80
2023-02-06T03:27:45.984Z,7.40
2023-02-06T03:30:18.625Z,7.30
2023-02-06T03:32:53.555Z,7.50
2023-02-06T03:35:29.718Z,7.40
2023-02-06T03:37:58.302Z,7.10
2023-02-06T03:40:28.319Z,6.90
2023-02-06T03:42:59.972Z,8.10
2023-02-06T03:45:30.874Z,7.30
2023-02-06T03:48:04.467Z,7.70
2023-02-06T03:50:36.173Z,8.10
2023-02-06T03:53:04.983Z,7.90
2023-02-06T03:55:33.149Z,8.10
2023-02-06T03:58:09.624Z,8.50
2023-02-06T04:00:39.545Z,7.50
2023-02-06T04:03:10.082Z,7.40
2023-02-06T04:05:38.966Z,8.00
2023-02-06T04:08:07.869Z,7.80
2023-02-06T04:10:35.958Z,7.90
2023-02-06T04:13:04.121Z,7.90
2023-02-06T04:15:32.097Z,9.00
2023-02-06T04:18:01.608Z,7.90
2023-02-06T04:20:30.609Z,8.60
2023-02-06T04:22:59.329Z,7.90
2023-02-06T04:25:27.451Z,7.70
2023-02-06T04:27:55.521Z,6.90
2023-02-06T04:30:23.877Z,8.20
2023-02-06T04:32:52.212Z,9.60
2023-02-06T04:35:20.624Z,8.10
2023-02-06T04:37:48.768Z,7.80
2023-02-06T04:40:17.001Z,7.40
2023-02-06T04:42:45.129Z,7.80
2023-02-06T04:45:13.829Z,7.80
2023-02-06T04:47:41.992Z,7.00
2023-02-06T04:50:10.791Z,7.40
2023-02-06T04:52:38.970Z,7.40
2023-02-06T04:55:07.557Z,7.30
2023-02-06T04:57:35.735Z,7.80
2023-02-06T05:00:06.546Z,6.80
2023-02-06T05:02:39.578Z,8.10
2023-02-06T05:05:09.139Z,8.00
2023-02-06T05:07:37.348Z,7.90
2023-02-06T05:10:05.946Z,7.80
2023-02-06T05:12:33.915Z,8.10
2023-02-06T05:15:02.091Z,8.10
2023-02-06T05:17:30.576Z,8.70
2023-02-06T05:19:59.103Z,8.60
2023-02-06T05:22:27.769Z,8.80
2023-02-06T05:24:55.823Z,7.70
2023-02-06T05:27:24.715Z,8.70
2023-02-06T05:29:52.900Z,8.40
2023-02-06T05:32:21.173Z,9.00
2023-02-06T05:34:49.219Z,8.70
2023-02-06T05:37:17.441Z,8.10
2023-02-06T05:39:45.614Z,9.20
2023-02-06T05:42:13.726Z,8.70
2023-02-06T05:44:41.767Z,7.50
2023-02-06T05:47:09.736Z,6.70
2023-02-06T05:49:37.924Z,7.10
2023-02-06T05:52:06.011Z,6.80
2023-02-06T05:54:34.404Z,7.10
2023-02-06T05:57:03.077Z,6.00
2023-02-06T05:59:31.221Z,6.20
2023-02-06T06:01:59.515Z,5.70
2023-02-06T06:04:27.934Z,5.70
2023-02-06T06:06:56.712Z,5.70
2023-02-06T06:09:24.694Z,6.70
2023-02-06T06:11:52.964Z,9.90
2023-02-06T06:14:21.039Z,8.80
2023-02-06T06:16:49.221Z,9.10
2023-02-06T06:19:17.305Z,9.00
2023-02-06T06:21:45.302Z,9.10
2023-02-06T06:24:13.529Z,10.50
2023-02-06T06:26:41.698Z,8.40
2023-02-06T06:29:09.723Z,8.60
2023-02-06T06:31:38.078Z,9.10
2023-02-06T06:34:06.363Z,8.50
2023-02-06T06:36:34.533Z,9.00
2023-02-06T06:39:03.175Z,9.10
2023-02-06T06:41:31.520Z,10.10
2023-02-06T06:44:00.811Z,8.70
2023-02-06T06:46:28.913Z,8.40
2023-02-06T06:48:57.381Z,10.00
2023-02-06T06:51:27.803Z,10.00
2023-02-06T06:53:57.426Z,9.00
2023-02-06T06:56:27.040Z,8.80
2023-02-06T06:58:58.151Z,9.70
2023-02-06T07:01:26.220Z,10.40
2023-02-06T07:03:54.524Z,9.60
2023-02-06T07:06:22.819Z,9.50
2023-02-06T07:08:50.990Z,10.00
2023-02-06T07:11:19.372Z,9.00
2023-02-06T07:13:47.450Z,9.60
2023-02-06T07:16:15.680Z,9.90
2023-02-06T07:18:43.910Z,8.30
2023-02-06T07:21:14.225Z,8.50
2023-02-06T07:23:42.320Z,8.90
2023-02-06T07:26:10.363Z,9.00
2023-02-06T07:28:38.727Z,8.20
2023-02-06T07:31:07.886Z,7.60
2023-02-06T07:33:35.919Z,7.70
2023-02-06T07:36:04.301Z,7.60
2023-02-06T07:38:32.488Z,7.20
2023-02-06T07:41:04.272Z,7.40
2023-02-06T07:43:32.818Z,7.60
2023-02-06T07:46:02.920Z,8.50
2023-02-06T07:48:31.574Z,8.20
2023-02-06T07:51:06.122Z,8.60
2023-02-06T07:53:35.400Z,8.70
2023-02-06T07:56:10.686Z,9.70
2023-02-06T07:58:38.732Z,9.90
2023-02-06T08:01:07.949Z,11.10
2023-02-06T08:03:36.579Z,10.00
2023-02-06T08:06:12.972Z,11.30
2023-02-06T08:08:41.865Z,11.00
2023-02-06T08:11:13.184Z,11.90
2023-02-06T08:13:42.935Z,11.30
2023-02-06T08:16:22.194Z,10.90
2023-02-06T08:18:50.955Z,10.50
2023-02-06T08:21:21.748Z,11.70
2023-02-06T08:23:57.608Z,11.60
2023-02-06T08:28:57.383Z,9.60
2023-02-06T08:31:32.179Z,9.70
2023-02-06T08:34:00.516Z,9.60
2023-02-06T08:36:32.865Z,9.60
2023-02-06T08:39:03.351Z,9.30
2023-02-06T08:41:37.609Z,9.90
2023-02-06T08:44:09.253Z,8.40
2023-02-06T08:46:38.709Z,8.40
2023-02-06T08:49:27.022Z,7.70
2023-02-06T08:51:55.091Z,8.60
2023-02-06T08:54:24.561Z,7.30
2023-02-06T08:56:53.705Z,7.00
2023-02-06T08:59:21.861Z,6.80
2023-02-06T09:01:50.225Z,7.00
2023-02-06T09:04:19.667Z,6.20
2023-02-06T09:06:49.216Z,4.70
2023-02-06T09:09:17.661Z,5.60
2023-02-06T09:11:45.755Z,5.40
2023-02-06T09:14:16.096Z,4.90
2023-02-06T09:16:44.348Z,4.90
2023-02-06T09:19:13.194Z,4.90
2023-02-06T09:21:41.941Z,4.40
2023-02-06T09:24:10.320Z,4.60
2023-02-06T09:26:57.022Z,4.30
2023-02-06T09:29:31.989Z,4.70
2023-02-06T09:32:01.179Z,4.10
2023-02-06T09:34:29.993Z,4.30
2023-02-06T09:36:58.420Z,4.00
2023-02-06T09:39:26.509Z,4.70
2023-02-06T09:42:03.391Z,4.70
2023-02-06T09:44:41.994Z,4.00
2023-02-06T09:47:34.237Z,4.40
2023-02-06T09:50:24.306Z,4.50
2023-02-06T09:53:03.737Z,4.60
2023-02-06T09:55:45.177Z,4.30
2023-02-06T09:58:41.135Z,3.70
2023-02-06T10:01:24.497Z,4.40
2023-02-06T10:04:05.863Z,4.00
2023-02-06T10:06:47.735Z,4.40
2023-02-06T10:09:21.759Z,4.10
2023-02-06T10:12:13.542Z,4.80
2023-02-06T10:14:44.694Z,4.20
2023-02-06T10:17:17.957Z,4.50
2023-02-06T10:19:48.357Z,4.20
2023-02-06T10:22:40.419Z,4.10
2023-02-06T10:25:30.318Z,4.80
2023-02-06T10:28:02.204Z,4.60
2023-02-06T10:31:13.854Z,4.70
2023-02-06T10:34:20.215Z,4.70
2023-02-06T10:37:24.406Z,4.80
2023-02-06T10:40:01.647Z,5.00
2023-02-06T10:42:38.896Z,4.50
2023-02-06T10:45:32.027Z,4.60
2023-02-06T10:48:21.687Z,4.80
2023-02-06T10:51:01.138Z,4.30
2023-02-06T10:53:35.149Z,4.40
2023-02-06T10:56:09.763Z,4.00
2023-02-06T10:58:46.025Z,5.10
2023-02-06T11:01:25.592Z,4.20
2023-02-06T11:04:12.487Z,4.90
2023-02-06T11:06:42.574Z,4.30
2023-02-06T11:09:10.983Z,4.60
2023-02-06T11:11:42.069Z,5.20
2023-02-06T11:14:26.386Z,4.50
2023-02-06T11:16:54.590Z,5.00
2023-02-06T11:19:37.464Z,4.60
2023-02-06T11:22:07.280Z,4.70
2023-02-06T11:24:37.094Z,4.70
2023-02-06T11:27:21.033Z,5.80
2023-02-06T11:29:52.226Z,5.00
2023-02-06T11:32:36.317Z,4.60
2023-02-06T11:35:29.550Z,5.00
2023-02-06T11:38:22.367Z,4.90
2023-02-06T11:41:18.019Z,4.70
2023-02-06T11:43:50.999Z,6.00
2023-02-06T11:46:20.614Z,5.00
2023-02-06T11:49:00.888Z,5.20
2023-02-06T11:51:54.326Z,5.20
2023-02-06T11:54:22.504Z,4.80
2023-02-06T11:57:18.532Z,5.20
2023-02-06T11:59:54.058Z,5.30
2023-02-06T12:02:34.079Z,5.50
2023-02-06T12:05:11.902Z,5.10
2023-02-06T12:08:02.593Z,5.60
2023-02-06T12:10:35.241Z,5.20
2023-02-06T12:13:18.809Z,5.30
2023-02-06T12:15:51.981Z,4.90
2023-02-06T12:18:32.456Z,5.10
2023-02-06T12:21:08.040Z,5.70
2023-02-06T12:23:57.645Z,6.00
2023-02-06T12:26:29.434Z,5.40
2023-02-06T12:29:20.046Z,5.20
2023-02-06T12:32:08.993Z,5.60
2023-02-06T12:34:53.950Z,5.80
2023-02-06T12:37:40.028Z,5.60
2023-02-06T12:40:43.316Z,6.20
2023-02-06T12:43:17.025Z,5.50
2023-02-06T12:45:57.501Z,6.00
2023-02-06T12:48:44.571Z,6.10
2023-02-06T12:51:18.484Z,5.80
2023-02-06T12:53:55.962Z,5.90
2023-02-06T12:56:31.027Z,6.10
2023-02-06T12:59:02.251Z,5.90
2023-02-06T13:01:52.230Z,6.00
2023-02-06T13:04:25.388Z,5.30
2023-02-06T13:07:03.369Z,5.50
2023-02-06T13:09:36.209Z,5.70
2023-02-06T13:12:23.079Z,5.60
2023-02-06T13:14:57.445Z,5.60
2023-02-06T13:17:58.469Z,5.70
2023-02-06T13:20:27.272Z,6.00
2023-02-06T13:23:16.221Z,6.00
2023-02-06T13:25:44.283Z,5.90
2023-02-06T13:28:27.709Z,5.90
2023-02-06T13:30:58.952Z,6.20
2023-02-06T13:33:58.366Z,5.90
2023-02-06T13:36:49.258Z,6.50
2023-02-06T13:39:27.635Z,6.00
2023-02-06T13:41:58.110Z,5.60
2023-02-06T13:44:37.811Z,6.70
2023-02-06T13:47:39.268Z,6.10
2023-02-06T13:50:30.375Z,6.40
2023-02-06T13:53:13.236Z,6.40
2023-02-06T13:56:14.600Z,6.60
2023-02-06T13:58:52.933Z,5.90
2023-02-06T14:01:28.396Z,6.20
2023-02-06T14:03:58.497Z,7.50
2023-02-06T14:06:56.866Z,6.60
2023-02-06T14:09:48.481Z,7.00
2023-02-06T14:12:44.637Z,6.60
2023-02-06T14:15:45.171Z,7.00
2023-02-06T14:18:51.132Z,6.00
2023-02-06T14:21:58.772Z,6.50
2023-02-06T14:24:46.887Z,6.50
2023-02-06T14:27:36.810Z,7.00
2023-02-06T14:30:08.081Z,7.90
2023-02-06T14:32:57.642Z,7.20
2023-02-06T14:35:38.132Z,7.30
2023-02-06T14:38:28.691Z,8.10
2023-02-06T14:40:59.636Z,7.80
2023-02-06T14:43:32.282Z,7.60
2023-02-06T14:46:07.905Z,6.90
2023-02-06T14:48:52.841Z,7.10
2023-02-06T14:51:22.683Z,7.40
2023-02-06T14:53:54.191Z,8.80
2023-02-06T14:56:31.928Z,8.10
2023-02-06T14:59:18.115Z,8.30
2023-02-06T15:04:26.115Z,8.60
2023-02-06T15:06:57.764Z,9.10
2023-02-06T15:09:38.014Z,8.00
2023-02-06T15:12:21.327Z,7.90
2023-02-06T15:14:58.841Z,9.60
2023-02-06T15:17:27.027Z,8.50
2023-02-06T15:19:55.707Z,8.40
2023-02-06T15:22:31.041Z,8.50
2023-02-06T15:25:08.152Z,8.90
2023-02-06T15:27:38.656Z,9.60
2023-02-06T15:30:21.642Z,9.10
2023-02-06T15:32:56.075Z,10.30
2023-02-06T15:35:28.886Z,8.90
2023-02-06T15:38:07.502Z,9.80
2023-02-06T15:40:39.114Z,9.30
2023-02-06T15:43:07.545Z,9.70
2023-02-06T15:45:40.565Z,9.70
2023-02-06T15:48:38.289Z,9.80
2023-02-06T15:51:31.019Z,11.50
2023-02-06T15:54:19.162Z,10.00
2023-02-06T15:56:51.639Z,11.20
2023-02-06T15:59:24.323Z,11.00
2023-02-06T16:01:54.952Z,11.40
2023-02-06T16:04:40.523Z,12.00
2023-02-06T16:07:17.524Z,11.70
2023-02-06T16:09:55.396Z,12.40
2023-02-06T16:12:23.687Z,12.50
2023-02-06T16:15:00.519Z,11.90
2023-02-06T16:17:41.254Z,11.80
2023-02-06T16:20:33.054Z,12.60
2023-02-06T16:24:06.936Z,12.70
2023-02-06T16:26:52.518Z,11.20
2023-02-06T16:29:23.538Z,12.10
2023-02-06T16:32:01.102Z,11.70
2023-02-06T16:34:32.689Z,11.10
2023-02-06T16:37:00.759Z,11.30
2023-02-06T16:39:28.832Z,11.50
2023-02-06T16:41:57.010Z,10.90
2023-02-06T16:44:36.024Z,10.10
2023-02-06T16:47:12.201Z,10.00
2023-02-06T16:49:40.374Z,10.20
2023-02-06T16:52:11.163Z,10.90
2023-02-06T16:54:39.387Z,11.10
2023-02-06T16:57:16.672Z,10.30
2023-02-06T16:59:45.166Z,12.10
2023-02-06T17:02:14.774Z,11.00
2023-02-06T17:04:43.189Z,11.20
2023-02-06T17:07:23.103Z,10.20
2023-02-06T17:09:52.108Z,11.40
2023-02-06T17:12:21.711Z,10.90
2023-02-06T17:14:50.516Z,11.70
2023-02-06T17:17:21.865Z,11.50
2023-02-06T17:19:51.992Z,12.00
2023-02-06T17:22:20.768Z,12.10
2023-02-06T17:24:49.281Z,12.70
2023-02-06T17:27:21.144Z,12.70
2023-02-06T17:29:50.639Z,11.90
2023-02-06T17:32:22.313Z,12.50
2023-02-06T17:34:54.354Z,12.20
2023-02-06T17:37:22.758Z,14.00
2023-02-06T17:39:52.557Z,12.90
2023-02-06T17:42:22.126Z,12.00
2023-02-06T17:44:50.756Z,11.90
2023-02-06T17:47:19.212Z,12.10
2023-02-06T17:49:47.316Z,13.20
2023-02-06T17:52:15.519Z,13.30
2023-02-06T17:54:44.598Z,12.50
2023-02-06T17:57:13.699Z,12.00
2023-02-06T17:59:41.873Z,12.20
2023-02-06T18:02:14.490Z,13.20
2023-02-06T18:04:42.727Z,13.70
2023-02-06T18:07:10.816Z,14.60
2023-02-06T18:09:41.049Z,14.90
2023-02-06T18:12:10.449Z,14.40
2023-02-06T18:14:40.011Z,15.40
2023-02-06T18:17:08.941Z,16.00
2023-02-06T18:19:42.308Z,16.60
2023-02-06T18:22:14.130Z,16.90
2023-02-06T18:24:43.332Z,16.40
2023-02-06T18:27:12.519Z,17.70
2023-02-06T18:29:49.674Z,18.30
2023-02-06T18:32:19.305Z,19.10
2023-02-06T18:34:48.249Z,20.40
2023-02-06T18:37:16.873Z,19.10
2023-02-06T18:39:44.842Z,20.10
2023-02-06T18:42:31.875Z,21.40
2023-02-06T18:44:59.956Z,21.00
2023-02-06T18:47:28.743Z,22.00
2023-02-06T18:49:56.774Z,21.90
2023-02-06T18:52:25.098Z,22.50
2023-02-06T18:54:53.272Z,23.50
2023-02-06T18:57:21.472Z,22.80
2023-02-06T18:59:49.942Z,24.30
2023-02-06T19:02:18.160Z,24.40
2023-02-06T19:04:46.396Z,24.10
2023-02-06T19:07:16.536Z,24.50
2023-02-06T19:09:44.606Z,24.10
2023-02-06T19:12:12.859Z,24.90
2023-02-06T19:14:41.774Z,23.80
2023-02-06T19:17:09.749Z,24.40
2023-02-06T19:19:37.838Z,23.70
2023-02-06T19:22:05.907Z,24.30
2023-02-06T19:24:33.978Z,23.90
2023-02-06T19:27:02.267Z,23.00
2023-02-06T19:29:36.195Z,24.10
2023-02-06T19:32:06.661Z,22.70
2023-02-06T19:34:37.803Z,23.20
2023-02-06T19:37:08.818Z,21.50
2023-02-06T19:39:40.425Z,22.60
2023-02-06T19:42:10.795Z,23.60
2023-02-06T19:44:38.964Z,24.50
2023-02-06T19:47:07.138Z,24.20
2023-02-06T19:49:35.514Z,23.50
2023-02-06T19:52:04.102Z,25.40
2023-02-06T19:54:32.115Z,22.10
2023-02-06T19:57:00.741Z,23.30
2023-02-06T19:59:30.284Z,23.80
2023-02-06T20:02:01.026Z,24.60
2023-02-06T20:04:34.398Z,24.30
2023-02-06T20:07:03.201Z,21.90
2023-02-06T20:09:31.829Z,23.40
2023-02-06T20:12:00.382Z,22.50
2023-02-06T20:14:29.045Z,23.10
2023-02-06T20:16:57.215Z,22.40
2023-02-06T20:19:28.876Z,24.60
2023-02-06T20:21:59.610Z,22.80
2023-02-06T20:24:30.326Z,23.00
2023-02-06T20:27:02.041Z,21.90
2023-02-06T20:29:36.607Z,23.00
2023-02-06T20:32:06.312Z,18.00
2023-02-06T20:34:35.591Z,24.60
2023-02-06T20:37:04.487Z,23.20
2023-02-06T20:39:33.150Z,23.80
2023-02-06T20:42:01.368Z,23.10
2023-02-06T20:44:29.926Z,23.50
2023-02-06T20:46:58.021Z,23.80
2023-02-06T20:49:28.655Z,23.30
2023-02-06T20:51:57.416Z,23.20
2023-02-06T20:54:26.002Z,22.60
2023-02-06T20:56:54.398Z,23.70
2023-02-06T20:59:22.456Z,21.40
2023-02-06T21:01:50.958Z,23.60
2023-02-06T21:04:20.587Z,23.20
2023-02-06T21:06:50.125Z,21.50
2023-02-06T21:09:19.491Z,20.90
2023-02-06T21:11:50.119Z,21.60
2023-02-06T21:14:19.540Z,21.30
2023-02-06T21:16:49.065Z,21.70
2023-02-06T21:19:19.983Z,22.30
2023-02-06T21:21:49.290Z,22.10
2023-02-06T21:24:18.390Z,21.60
2023-02-06T21:26:46.866Z,22.90
2023-02-06T21:29:15.815Z,20.60
2023-02-06T21:31:46.231Z,22.50
2023-02-06T21:34:21.477Z,22.90
2023-02-06T21:36:50.153Z,20.10
2023-02-06T21:39:21.682Z,22.20
2023-02-06T21:41:52.014Z,22.20
2023-02-06T21:44:23.787Z,21.80
2023-02-06T21:46:53.184Z,21.10
2023-02-06T21:49:21.864Z,20.40
2023-02-06T21:51:50.999Z,21.20
2023-02-06T21:54:19.140Z,21.50
2023-02-06T21:56:47.232Z,21.80
2023-02-06T21:59:15.178Z,21.60
2023-02-06T22:01:43.602Z,22.30
2023-02-06T22:04:12.362Z,23.50
2023-02-06T22:06:40.864Z,20.90
2023-02-06T22:09:15.200Z,23.50
2023-02-06T22:11:44.191Z,22.90
2023-02-06T22:14:14.999Z,24.90
2023-02-06T22:16:43.295Z,23.80
2023-02-06T22:19:11.355Z,22.80
2023-02-06T22:21:39.859Z,22.90
2023-02-06T22:24:10.509Z,23.50
2023-02-06T22:27:07.006Z,21.20
2023-02-06T22:29:35.090Z,23.10
2023-02-06T22:32:04.719Z,22.00
2023-02-06T22:34:33.290Z,22.40
2023-02-06T22:37:01.259Z,21.40
2023-02-06T22:39:29.442Z,21.70
2023-02-06T22:41:57.518Z,21.60
2023-02-06T22:44:25.694Z,21.60
2023-02-06T22:46:53.768Z,22.00
2023-02-06T22:49:22.507Z,22.90
2023-02-06T22:51:51.058Z,23.10
2023-02-06T22:54:19.335Z,23.10
2023-02-06T22:56:47.406Z,21.90
2023-02-06T22:59:20.521Z,22.00
2023-02-06T23:01:50.278Z,22.80
2023-02-06T23:04:24.014Z,23.60
2023-02-06T23:06:53.120Z,22.90
2023-02-06T23:09:30.835Z,23.40
2023-02-06T23:11:59.726Z,23.00
2023-02-06T23:14:30.166Z,22.10
2023-02-06T23:17:00.552Z,22.20
2023-02-06T23:19:29.274Z,23.30
2023-02-06T23:21:57.654Z,22.80
2023-02-06T23:24:25.829Z,22.70
2023-02-06T23:26:54.663Z,21.60
2023-02-06T23:29:24.031Z,22.40
2023-02-06T23:31:52.968Z,21.70
2023-02-06T23:34:23.873Z,21.70
2023-02-06T23:36:52.356Z,22.30
2023-02-06T23:39:20.627Z,21.40
2023-02-06T23:41:48.710Z,21.40
2023-02-06T23:44:16.723Z,21.50
2023-02-06T23:46:44.948Z,21.10
2023-02-06T23:49:13.139Z,20.30
2023-02-06T23:51:41.205Z,21.00
2023-02-06T23:54:09.926Z,19.70
2023-02-06T23:56:38.300Z,19.30
2023-02-06T23:59:07.586Z,19.10
